sensor_id;sensor_type;location;lat;lon;timestamp;temperature;humidity
52615;DHT22;38508;53.158;6.614;2022-11-04T00:01:47;12.70;99.90
52615;DHT22;38508;53.158;6.614;2022-11-04T00:04:15;12.60;99.90
52615;DHT22;38508;53.158;6.614;2022-11-04T00:06:41;12.70;99.90
52615;DHT22;38508;53.158;6.614;2022-11-04T00:09:09;12.70;99.90
52615;DHT22;38508;53.158;6.614;2022-11-04T00:11:35;12.70;99.90
52615;DHT22;38508;53.158;6.614;2022-11-04T00:14:20;12.70;99.90
52615;DHT22;38508;53.158;6.614;2022-11-04T00:16:46;12.70;99.90
52615;DHT22;38508;53.158;6.614;2022-11-04T00:19:30;12.80;99.90
52615;DHT22;38508;53.158;6.614;2022-11-04T00:22:15;12.70;99.90
52615;DHT22;38508;53.158;6.614;2022-11-04T00:24:59;12.90;99.90
52615;DHT22;38508;53.158;6.614;2022-11-04T00:27:44;13.10;99.90
52615;DHT22;38508;53.158;6.614;2022-11-04T00:30:28;13.20;99.90
52615;DHT22;38508;53.158;6.614;2022-11-04T00:32:54;13.10;99.90
52615;DHT22;38508;53.158;6.614;2022-11-04T00:35:38;13.10;99.90
52615;DHT22;38508;53.158;6.614;2022-11-04T00:38:04;13.10;99.90
52615;DHT22;38508;53.158;6.614;2022-11-04T00:40:29;13.00;99.90
52615;DHT22;38508;53.158;6.614;2022-11-04T00:42:55;12.90;99.90
52615;DHT22;38508;53.158;6.614;2022-11-04T00:45:21;12.70;99.90
52615;DHT22;38508;53.158;6.614;2022-11-04T00:47:46;12.60;99.90
52615;DHT22;38508;53.158;6.614;2022-11-04T00:50:12;12.40;99.90
52615;DHT22;38508;53.158;6.614;2022-11-04T00:52:38;12.30;99.90
52615;DHT22;38508;53.158;6.614;2022-11-04T00:55:04;12.30;99.90
52615;DHT22;38508;53.158;6.614;2022-11-04T00:57:29;12.10;99.90
52615;DHT22;38508;53.158;6.614;2022-11-04T00:59:56;11.90;99.90
52615;DHT22;38508;53.158;6.614;2022-11-04T01:02:21;11.90;99.90
52615;DHT22;38508;53.158;6.614;2022-11-04T01:04:47;11.90;99.90
52615;DHT22;38508;53.158;6.614;2022-11-04T01:07:13;11.80;99.90
52615;DHT22;38508;53.158;6.614;2022-11-04T01:09:39;11.90;99.90
52615;DHT22;38508;53.158;6.614;2022-11-04T01:12:04;11.90;99.90
52615;DHT22;38508;53.158;6.614;2022-11-04T01:14:30;11.80;99.90
52615;DHT22;38508;53.158;6.614;2022-11-04T01:16:56;11.80;99.90
52615;DHT22;38508;53.158;6.614;2022-11-04T01:19:21;11.70;99.90
52615;DHT22;38508;53.158;6.614;2022-11-04T01:21:51;11.90;99.90
52615;DHT22;38508;53.158;6.614;2022-11-04T01:24:17;11.90;99.90
52615;DHT22;38508;53.158;6.614;2022-11-04T01:26:43;12.10;99.90
52615;DHT22;38508;53.158;6.614;2022-11-04T01:29:09;12.20;99.90
52615;DHT22;38508;53.158;6.614;2022-11-04T01:31:35;12.40;99.90
52615;DHT22;38508;53.158;6.614;2022-11-04T01:34:00;12.40;99.90
52615;DHT22;38508;53.158;6.614;2022-11-04T01:36:26;12.30;99.90
52615;DHT22;38508;53.158;6.614;2022-11-04T01:38:57;12.30;99.90
52615;DHT22;38508;53.158;6.614;2022-11-04T01:41:30;12.40;99.90
52615;DHT22;38508;53.158;6.614;2022-11-04T01:46:36;12.50;99.90
52615;DHT22;38508;53.158;6.614;2022-11-04T01:51:48;12.50;99.90
52615;DHT22;38508;53.158;6.614;2022-11-04T01:54:15;12.60;99.90
52615;DHT22;38508;53.158;6.614;2022-11-04T01:56:41;12.50;99.90
52615;DHT22;38508;53.158;6.614;2022-11-04T01:59:17;12.50;99.90
52615;DHT22;38508;53.158;6.614;2022-11-04T02:01:45;12.50;99.90
52615;DHT22;38508;53.158;6.614;2022-11-04T02:04:12;12.40;99.90
52615;DHT22;38508;53.158;6.614;2022-11-04T02:06:55;12.40;99.90
52615;DHT22;38508;53.158;6.614;2022-11-04T02:09:22;12.30;99.90
52615;DHT22;38508;53.158;6.614;2022-11-04T02:11:48;12.10;99.90
52615;DHT22;38508;53.158;6.614;2022-11-04T02:14:33;12.20;99.90
52615;DHT22;38508;53.158;6.614;2022-11-04T02:17:35;12.10;99.90
52615;DHT22;38508;53.158;6.614;2022-11-04T02:33:45;11.60;99.90
52615;DHT22;38508;53.158;6.614;2022-11-04T02:38:56;11.70;99.90
52615;DHT22;38508;53.158;6.614;2022-11-04T02:44:20;11.80;99.90
52615;DHT22;38508;53.158;6.614;2022-11-04T02:47:07;11.80;99.90
52615;DHT22;38508;53.158;6.614;2022-11-04T02:49:56;12.00;99.90
52615;DHT22;38508;53.158;6.614;2022-11-04T02:52:38;12.10;99.90
52615;DHT22;38508;53.158;6.614;2022-11-04T02:55:10;12.20;99.90
52615;DHT22;38508;53.158;6.614;2022-11-04T02:57:39;12.30;99.90
52615;DHT22;38508;53.158;6.614;2022-11-04T03:00:08;12.30;99.90
52615;DHT22;38508;53.158;6.614;2022-11-04T03:02:41;12.40;99.90
52615;DHT22;38508;53.158;6.614;2022-11-04T03:05:17;12.40;99.90
52615;DHT22;38508;53.158;6.614;2022-11-04T03:07:45;12.40;99.90
52615;DHT22;38508;53.158;6.614;2022-11-04T03:10:16;12.50;99.90
52615;DHT22;38508;53.158;6.614;2022-11-04T03:13:01;12.50;99.90
52615;DHT22;38508;53.158;6.614;2022-11-04T03:15:30;12.50;99.90
52615;DHT22;38508;53.158;6.614;2022-11-04T03:18:09;12.60;99.90
52615;DHT22;38508;53.158;6.614;2022-11-04T03:20:38;12.70;99.90
52615;DHT22;38508;53.158;6.614;2022-11-04T03:23:05;12.60;99.90
52615;DHT22;38508;53.158;6.614;2022-11-04T03:25:40;12.60;99.90
52615;DHT22;38508;53.158;6.614;2022-11-04T03:28:38;12.60;99.90
52615;DHT22;38508;53.158;6.614;2022-11-04T03:31:11;12.60;99.90
52615;DHT22;38508;53.158;6.614;2022-11-04T03:33:50;12.60;99.90
52615;DHT22;38508;53.158;6.614;2022-11-04T03:36:18;12.60;99.90
52615;DHT22;38508;53.158;6.614;2022-11-04T03:38:44;12.70;99.90
52615;DHT22;38508;53.158;6.614;2022-11-04T03:41:19;12.70;99.90
52615;DHT22;38508;53.158;6.614;2022-11-04T03:43:47;12.70;99.90
52615;DHT22;38508;53.158;6.614;2022-11-04T03:46:13;12.70;99.90
52615;DHT22;38508;53.158;6.614;2022-11-04T03:48:39;12.80;99.90
52615;DHT22;38508;53.158;6.614;2022-11-04T03:51:08;12.80;99.90
52615;DHT22;38508;53.158;6.614;2022-11-04T03:53:34;12.90;99.90
52615;DHT22;38508;53.158;6.614;2022-11-04T04:03:45;12.80;99.90
52615;DHT22;38508;53.158;6.614;2022-11-04T04:06:19;12.80;99.90
52615;DHT22;38508;53.158;6.614;2022-11-04T04:11:54;12.80;99.90
52615;DHT22;38508;53.158;6.614;2022-11-04T04:14:28;12.80;99.90
52615;DHT22;38508;53.158;6.614;2022-11-04T04:17:22;12.70;99.90
52615;DHT22;38508;53.158;6.614;2022-11-04T04:19:57;12.70;99.90
52615;DHT22;38508;53.158;6.614;2022-11-04T04:22:30;12.70;99.90
52615;DHT22;38508;53.158;6.614;2022-11-04T04:25:00;12.70;99.90
52615;DHT22;38508;53.158;6.614;2022-11-04T04:27:47;12.60;99.90
52615;DHT22;38508;53.158;6.614;2022-11-04T04:30:15;12.40;99.90
52615;DHT22;38508;53.158;6.614;2022-11-04T04:32:45;12.20;99.90
52615;DHT22;38508;53.158;6.614;2022-11-04T04:35:11;12.20;99.90
52615;DHT22;38508;53.158;6.614;2022-11-04T04:37:59;12.10;99.90
52615;DHT22;38508;53.158;6.614;2022-11-04T04:40:52;12.00;99.90
52615;DHT22;38508;53.158;6.614;2022-11-04T04:43:41;11.90;99.90
52615;DHT22;38508;53.158;6.614;2022-11-04T04:46:29;11.70;99.90
52615;DHT22;38508;53.158;6.614;2022-11-04T04:49:05;11.60;99.90
52615;DHT22;38508;53.158;6.614;2022-11-04T04:51:32;11.60;99.90
52615;DHT22;38508;53.158;6.614;2022-11-04T04:53:58;11.60;99.90
52615;DHT22;38508;53.158;6.614;2022-11-04T04:56:23;11.80;99.90
52615;DHT22;38508;53.158;6.614;2022-11-04T04:58:49;11.80;99.90
52615;DHT22;38508;53.158;6.614;2022-11-04T05:01:14;11.80;99.90
52615;DHT22;38508;53.158;6.614;2022-11-04T05:03:40;11.80;99.90
52615;DHT22;38508;53.158;6.614;2022-11-04T05:06:06;11.80;99.90
52615;DHT22;38508;53.158;6.614;2022-11-04T05:08:31;11.70;99.90
52615;DHT22;38508;53.158;6.614;2022-11-04T05:10:59;11.70;99.90
52615;DHT22;38508;53.158;6.614;2022-11-04T05:13:25;11.70;99.90
52615;DHT22;38508;53.158;6.614;2022-11-04T05:15:51;11.60;99.90
52615;DHT22;38508;53.158;6.614;2022-11-04T05:18:18;11.60;99.90
52615;DHT22;38508;53.158;6.614;2022-11-04T05:20:44;11.60;99.90
52615;DHT22;38508;53.158;6.614;2022-11-04T05:23:10;11.50;99.90
52615;DHT22;38508;53.158;6.614;2022-11-04T05:25:40;11.40;99.90
52615;DHT22;38508;53.158;6.614;2022-11-04T05:28:07;11.40;99.90
52615;DHT22;38508;53.158;6.614;2022-11-04T05:30:33;11.40;99.90
52615;DHT22;38508;53.158;6.614;2022-11-04T05:32:58;11.60;99.90
52615;DHT22;38508;53.158;6.614;2022-11-04T05:35:24;11.40;99.90
52615;DHT22;38508;53.158;6.614;2022-11-04T05:37:50;11.30;99.90
52615;DHT22;38508;53.158;6.614;2022-11-04T05:40:16;11.30;99.90
52615;DHT22;38508;53.158;6.614;2022-11-04T05:42:41;11.50;99.90
52615;DHT22;38508;53.158;6.614;2022-11-04T05:45:08;11.50;99.90
52615;DHT22;38508;53.158;6.614;2022-11-04T05:47:33;11.60;99.90
52615;DHT22;38508;53.158;6.614;2022-11-04T05:50:00;11.60;99.90
52615;DHT22;38508;53.158;6.614;2022-11-04T05:52:26;11.70;99.90
52615;DHT22;38508;53.158;6.614;2022-11-04T05:54:51;11.90;99.90
52615;DHT22;38508;53.158;6.614;2022-11-04T05:57:17;11.90;99.90
52615;DHT22;38508;53.158;6.614;2022-11-04T05:59:43;11.90;99.90
52615;DHT22;38508;53.158;6.614;2022-11-04T06:02:08;11.90;99.90
52615;DHT22;38508;53.158;6.614;2022-11-04T06:04:34;11.90;99.90
52615;DHT22;38508;53.158;6.614;2022-11-04T06:07:00;12.00;99.90
52615;DHT22;38508;53.158;6.614;2022-11-04T06:09:25;11.90;99.90
52615;DHT22;38508;53.158;6.614;2022-11-04T06:12:14;11.70;99.90
52615;DHT22;38508;53.158;6.614;2022-11-04T06:14:41;11.20;99.90
52615;DHT22;38508;53.158;6.614;2022-11-04T06:17:15;11.10;99.90
52615;DHT22;38508;53.158;6.614;2022-11-04T06:19:41;11.20;99.90
52615;DHT22;38508;53.158;6.614;2022-11-04T06:22:09;11.20;99.90
52615;DHT22;38508;53.158;6.614;2022-11-04T06:24:35;11.20;99.90
52615;DHT22;38508;53.158;6.614;2022-11-04T06:27:01;11.20;99.90
52615;DHT22;38508;53.158;6.614;2022-11-04T06:29:26;11.40;99.90
52615;DHT22;38508;53.158;6.614;2022-11-04T06:31:52;11.50;99.90
52615;DHT22;38508;53.158;6.614;2022-11-04T06:34:18;11.60;99.90
52615;DHT22;38508;53.158;6.614;2022-11-04T06:36:43;11.50;99.90
52615;DHT22;38508;53.158;6.614;2022-11-04T06:39:09;11.40;99.90
52615;DHT22;38508;53.158;6.614;2022-11-04T06:41:35;11.50;99.90
52615;DHT22;38508;53.158;6.614;2022-11-04T06:44:00;11.50;99.90
52615;DHT22;38508;53.158;6.614;2022-11-04T06:46:39;11.40;99.90
52615;DHT22;38508;53.158;6.614;2022-11-04T06:49:09;11.40;99.90
52615;DHT22;38508;53.158;6.614;2022-11-04T06:51:35;11.40;99.90
52615;DHT22;38508;53.158;6.614;2022-11-04T06:54:01;11.40;99.90
52615;DHT22;38508;53.158;6.614;2022-11-04T06:56:27;11.40;99.90
52615;DHT22;38508;53.158;6.614;2022-11-04T06:58:53;11.40;99.90
52615;DHT22;38508;53.158;6.614;2022-11-04T07:01:21;11.50;99.90
52615;DHT22;38508;53.158;6.614;2022-11-04T07:03:48;11.60;99.90
52615;DHT22;38508;53.158;6.614;2022-11-04T07:06:14;11.60;99.90
52615;DHT22;38508;53.158;6.614;2022-11-04T07:08:40;11.50;99.90
52615;DHT22;38508;53.158;6.614;2022-11-04T07:11:06;11.40;99.90
52615;DHT22;38508;53.158;6.614;2022-11-04T07:13:31;11.50;99.90
52615;DHT22;38508;53.158;6.614;2022-11-04T07:15:57;11.60;99.90
52615;DHT22;38508;53.158;6.614;2022-11-04T07:18:23;11.70;99.90
52615;DHT22;38508;53.158;6.614;2022-11-04T07:20:49;11.80;99.90
52615;DHT22;38508;53.158;6.614;2022-11-04T07:23:14;11.90;99.90
52615;DHT22;38508;53.158;6.614;2022-11-04T07:25:40;11.90;99.90
52615;DHT22;38508;53.158;6.614;2022-11-04T07:28:06;11.90;99.90
52615;DHT22;38508;53.158;6.614;2022-11-04T07:30:31;11.90;99.90
52615;DHT22;38508;53.158;6.614;2022-11-04T07:32:57;11.90;99.90
52615;DHT22;38508;53.158;6.614;2022-11-04T07:35:23;11.90;99.90
52615;DHT22;38508;53.158;6.614;2022-11-04T07:37:49;11.90;99.90
52615;DHT22;38508;53.158;6.614;2022-11-04T07:40:14;11.90;99.90
52615;DHT22;38508;53.158;6.614;2022-11-04T07:42:40;11.90;99.90
52615;DHT22;38508;53.158;6.614;2022-11-04T07:45:06;12.00;99.90
52615;DHT22;38508;53.158;6.614;2022-11-04T07:47:32;12.00;99.90
52615;DHT22;38508;53.158;6.614;2022-11-04T07:49:58;11.90;99.90
52615;DHT22;38508;53.158;6.614;2022-11-04T07:52:24;11.90;99.90
52615;DHT22;38508;53.158;6.614;2022-11-04T07:54:50;11.80;99.90
52615;DHT22;38508;53.158;6.614;2022-11-04T07:57:15;11.90;99.90
52615;DHT22;38508;53.158;6.614;2022-11-04T07:59:41;11.90;99.90
52615;DHT22;38508;53.158;6.614;2022-11-04T08:02:09;11.70;99.90
52615;DHT22;38508;53.158;6.614;2022-11-04T08:04:35;11.80;99.90
52615;DHT22;38508;53.158;6.614;2022-11-04T08:07:01;11.70;99.90
52615;DHT22;38508;53.158;6.614;2022-11-04T08:09:26;11.70;99.90
52615;DHT22;38508;53.158;6.614;2022-11-04T08:11:52;11.70;99.90
52615;DHT22;38508;53.158;6.614;2022-11-04T08:14:17;11.60;99.90
52615;DHT22;38508;53.158;6.614;2022-11-04T08:16:43;11.70;99.90
52615;DHT22;38508;53.158;6.614;2022-11-04T08:19:09;11.60;99.90
52615;DHT22;38508;53.158;6.614;2022-11-04T08:21:34;11.80;99.90
52615;DHT22;38508;53.158;6.614;2022-11-04T08:24:00;11.80;99.90
52615;DHT22;38508;53.158;6.614;2022-11-04T08:26:29;11.70;99.90
52615;DHT22;38508;53.158;6.614;2022-11-04T08:28:55;11.60;99.90
52615;DHT22;38508;53.158;6.614;2022-11-04T08:31:26;11.60;99.90
52615;DHT22;38508;53.158;6.614;2022-11-04T08:33:53;11.50;99.90
52615;DHT22;38508;53.158;6.614;2022-11-04T08:36:25;11.50;99.90
52615;DHT22;38508;53.158;6.614;2022-11-04T08:38:52;11.40;99.90
52615;DHT22;38508;53.158;6.614;2022-11-04T08:41:20;11.30;99.90
52615;DHT22;38508;53.158;6.614;2022-11-04T08:43:47;11.20;99.90
52615;DHT22;38508;53.158;6.614;2022-11-04T08:46:13;11.20;99.90
52615;DHT22;38508;53.158;6.614;2022-11-04T08:48:40;11.20;99.90
52615;DHT22;38508;53.158;6.614;2022-11-04T08:51:14;11.40;99.90
52615;DHT22;38508;53.158;6.614;2022-11-04T08:53:40;11.40;99.90
52615;DHT22;38508;53.158;6.614;2022-11-04T08:56:20;11.50;99.90
52615;DHT22;38508;53.158;6.614;2022-11-04T08:58:47;11.50;99.90
52615;DHT22;38508;53.158;6.614;2022-11-04T09:01:14;11.50;99.90
52615;DHT22;38508;53.158;6.614;2022-11-04T09:03:40;11.40;99.90
52615;DHT22;38508;53.158;6.614;2022-11-04T09:06:09;11.50;99.90
52615;DHT22;38508;53.158;6.614;2022-11-04T09:08:35;11.50;99.90
52615;DHT22;38508;53.158;6.614;2022-11-04T09:11:09;11.40;99.90
52615;DHT22;38508;53.158;6.614;2022-11-04T09:13:36;11.60;99.90
52615;DHT22;38508;53.158;6.614;2022-11-04T09:16:03;11.60;99.90
52615;DHT22;38508;53.158;6.614;2022-11-04T09:18:29;11.70;99.90
52615;DHT22;38508;53.158;6.614;2022-11-04T09:20:58;11.70;99.90
52615;DHT22;38508;53.158;6.614;2022-11-04T09:23:25;11.80;99.90
52615;DHT22;38508;53.158;6.614;2022-11-04T09:25:50;12.00;99.90
52615;DHT22;38508;53.158;6.614;2022-11-04T09:28:16;12.10;99.90
52615;DHT22;38508;53.158;6.614;2022-11-04T09:30:42;12.10;99.90
52615;DHT22;38508;53.158;6.614;2022-11-04T09:33:08;12.00;99.90
52615;DHT22;38508;53.158;6.614;2022-11-04T09:35:33;11.90;99.90
52615;DHT22;38508;53.158;6.614;2022-11-04T09:37:59;11.90;99.90
52615;DHT22;38508;53.158;6.614;2022-11-04T09:40:27;12.00;99.90
52615;DHT22;38508;53.158;6.614;2022-11-04T09:45:25;11.90;99.90
52615;DHT22;38508;53.158;6.614;2022-11-04T09:47:56;12.00;99.90
52615;DHT22;38508;53.158;6.614;2022-11-04T09:50:46;12.00;99.90
52615;DHT22;38508;53.158;6.614;2022-11-04T09:53:17;12.30;99.90
52615;DHT22;38508;53.158;6.614;2022-11-04T09:55:54;12.20;99.90
52615;DHT22;38508;53.158;6.614;2022-11-04T09:58:21;12.20;99.90
52615;DHT22;38508;53.158;6.614;2022-11-04T10:01:01;12.30;99.90
52615;DHT22;38508;53.158;6.614;2022-11-04T10:03:54;12.40;99.90
52615;DHT22;38508;53.158;6.614;2022-11-04T10:12:35;12.60;99.90
52615;DHT22;38508;53.158;6.614;2022-11-04T10:21:00;13.30;99.90
52615;DHT22;38508;53.158;6.614;2022-11-04T10:26:43;14.10;99.90
52615;DHT22;38508;53.158;6.614;2022-11-04T10:29:37;14.10;99.90
52615;DHT22;38508;53.158;6.614;2022-11-04T10:32:12;14.30;99.90
52615;DHT22;38508;53.158;6.614;2022-11-04T10:37:24;14.10;99.90
52615;DHT22;38508;53.158;6.614;2022-11-04T10:39:54;14.50;99.90
52615;DHT22;38508;53.158;6.614;2022-11-04T10:42:23;14.60;99.90
52615;DHT22;38508;53.158;6.614;2022-11-04T10:44:50;14.80;99.90
52615;DHT22;38508;53.158;6.614;2022-11-04T10:47:46;15.10;99.90
52615;DHT22;38508;53.158;6.614;2022-11-04T10:50:23;14.90;99.90
52615;DHT22;38508;53.158;6.614;2022-11-04T10:52:50;15.00;99.90
52615;DHT22;38508;53.158;6.614;2022-11-04T10:58:44;14.50;99.90
52615;DHT22;38508;53.158;6.614;2022-11-04T11:01:31;15.20;99.90
52615;DHT22;38508;53.158;6.614;2022-11-04T11:03:57;15.50;99.90
52615;DHT22;38508;53.158;6.614;2022-11-04T11:06:31;15.50;99.90
52615;DHT22;38508;53.158;6.614;2022-11-04T11:09:26;15.50;99.90
52615;DHT22;38508;53.158;6.614;2022-11-04T11:14:39;15.50;99.90
52615;DHT22;38508;53.158;6.614;2022-11-04T11:19:58;15.40;99.90
52615;DHT22;38508;53.158;6.614;2022-11-04T11:22:44;15.20;99.90
52615;DHT22;38508;53.158;6.614;2022-11-04T11:25:30;15.00;99.70
52615;DHT22;38508;53.158;6.614;2022-11-04T11:27:59;14.70;99.90
52615;DHT22;38508;53.158;6.614;2022-11-04T11:30:31;14.90;99.80
52615;DHT22;38508;53.158;6.614;2022-11-04T11:33:04;14.80;99.70
52615;DHT22;38508;53.158;6.614;2022-11-04T11:35:40;14.70;99.70
52615;DHT22;38508;53.158;6.614;2022-11-04T11:38:24;14.60;99.90
52615;DHT22;38508;53.158;6.614;2022-11-04T11:41:04;14.80;99.90
52615;DHT22;38508;53.158;6.614;2022-11-04T11:43:32;15.00;99.30
52615;DHT22;38508;53.158;6.614;2022-11-04T11:45:58;15.00;99.40
52615;DHT22;38508;53.158;6.614;2022-11-04T11:50:57;15.40;99.10
52615;DHT22;38508;53.158;6.614;2022-11-04T11:53:25;14.90;99.30
52615;DHT22;38508;53.158;6.614;2022-11-04T12:01:21;14.20;99.70
52615;DHT22;38508;53.158;6.614;2022-11-04T12:03:48;14.00;99.90
52615;DHT22;38508;53.158;6.614;2022-11-04T12:31:07;14.20;98.50
52615;DHT22;38508;53.158;6.614;2022-11-04T12:41:26;14.20;99.10
52615;DHT22;38508;53.158;6.614;2022-11-04T13:13:14;15.00;98.20
52615;DHT22;38508;53.158;6.614;2022-11-04T13:15:48;14.90;98.60
52615;DHT22;38508;53.158;6.614;2022-11-04T13:18:19;14.70;98.10
52615;DHT22;38508;53.158;6.614;2022-11-04T13:20:55;15.00;98.50
52615;DHT22;38508;53.158;6.614;2022-11-04T13:23:28;15.60;98.30
52615;DHT22;38508;53.158;6.614;2022-11-04T13:25:56;16.00;97.60
52615;DHT22;38508;53.158;6.614;2022-11-04T13:28:24;15.70;97.90
52615;DHT22;38508;53.158;6.614;2022-11-04T13:33:56;15.90;97.80
52615;DHT22;38508;53.158;6.614;2022-11-04T13:39:14;14.90;98.50
52615;DHT22;38508;53.158;6.614;2022-11-04T13:44:25;14.80;99.00
52615;DHT22;38508;53.158;6.614;2022-11-04T13:46:54;14.70;99.00
52615;DHT22;38508;53.158;6.614;2022-11-04T13:49:31;14.80;98.90
52615;DHT22;38508;53.158;6.614;2022-11-04T13:54:41;14.50;99.40
52615;DHT22;38508;53.158;6.614;2022-11-04T13:57:18;14.50;99.50
52615;DHT22;38508;53.158;6.614;2022-11-04T14:00:07;14.50;99.50
52615;DHT22;38508;53.158;6.614;2022-11-04T14:02:48;14.40;99.60
52615;DHT22;38508;53.158;6.614;2022-11-04T14:16:08;14.20;99.30
52615;DHT22;38508;53.158;6.614;2022-11-04T14:18:37;14.20;99.30
52615;DHT22;38508;53.158;6.614;2022-11-04T14:21:10;14.30;99.30
52615;DHT22;38508;53.158;6.614;2022-11-04T14:23:48;14.40;99.30
52615;DHT22;38508;53.158;6.614;2022-11-04T14:26:17;14.60;99.10
52615;DHT22;38508;53.158;6.614;2022-11-04T14:28:46;14.70;99.20
52615;DHT22;38508;53.158;6.614;2022-11-04T14:31:32;14.60;99.20
52615;DHT22;38508;53.158;6.614;2022-11-04T14:33:59;14.80;99.30
52615;DHT22;38508;53.158;6.614;2022-11-04T14:36:38;15.00;99.30
52615;DHT22;38508;53.158;6.614;2022-11-04T14:46:58;14.70;99.10
52615;DHT22;38508;53.158;6.614;2022-11-04T14:49:38;14.70;98.70
52615;DHT22;38508;53.158;6.614;2022-11-04T14:55:14;14.70;98.60
52615;DHT22;38508;53.158;6.614;2022-11-04T14:57:45;14.60;98.40
52615;DHT22;38508;53.158;6.614;2022-11-04T15:03:23;14.50;98.50
52615;DHT22;38508;53.158;6.614;2022-11-04T15:08:41;14.40;99.20
52615;DHT22;38508;53.158;6.614;2022-11-04T15:13:47;14.40;98.80
52615;DHT22;38508;53.158;6.614;2022-11-04T15:16:20;14.30;99.90
52615;DHT22;38508;53.158;6.614;2022-11-04T15:18:46;14.30;99.20
52615;DHT22;38508;53.158;6.614;2022-11-04T15:21:13;14.40;98.90
52615;DHT22;38508;53.158;6.614;2022-11-04T15:23:43;14.20;98.90
52615;DHT22;38508;53.158;6.614;2022-11-04T15:26:27;14.20;99.00
52615;DHT22;38508;53.158;6.614;2022-11-04T15:28:54;14.10;99.10
52615;DHT22;38508;53.158;6.614;2022-11-04T15:31:22;14.10;99.40
52615;DHT22;38508;53.158;6.614;2022-11-04T15:33:52;14.00;99.40
52615;DHT22;38508;53.158;6.614;2022-11-04T15:38:58;14.00;99.80
52615;DHT22;38508;53.158;6.614;2022-11-04T15:41:28;14.00;99.70
52615;DHT22;38508;53.158;6.614;2022-11-04T15:44:24;13.90;99.80
52615;DHT22;38508;53.158;6.614;2022-11-04T15:46:59;13.90;99.80
52615;DHT22;38508;53.158;6.614;2022-11-04T15:49:30;13.80;99.80
52615;DHT22;38508;53.158;6.614;2022-11-04T15:52:04;13.80;99.90
52615;DHT22;38508;53.158;6.614;2022-11-04T15:54:34;13.70;99.80
52615;DHT22;38508;53.158;6.614;2022-11-04T15:57:13;13.60;99.80
52615;DHT22;38508;53.158;6.614;2022-11-04T16:02:31;13.40;99.90
52615;DHT22;38508;53.158;6.614;2022-11-04T16:07:33;13.30;99.90
52615;DHT22;38508;53.158;6.614;2022-11-04T16:09:59;13.20;99.90
52615;DHT22;38508;53.158;6.614;2022-11-04T16:12:37;13.10;99.90
52615;DHT22;38508;53.158;6.614;2022-11-04T16:15:03;13.10;99.90
52615;DHT22;38508;53.158;6.614;2022-11-04T16:17:29;13.00;99.90
52615;DHT22;38508;53.158;6.614;2022-11-04T16:19:59;13.00;99.90
52615;DHT22;38508;53.158;6.614;2022-11-04T16:22:37;12.90;99.90
52615;DHT22;38508;53.158;6.614;2022-11-04T16:25:08;12.80;99.90
52615;DHT22;38508;53.158;6.614;2022-11-04T16:27:44;12.80;99.90
52615;DHT22;38508;53.158;6.614;2022-11-04T16:30:19;12.80;99.90
52615;DHT22;38508;53.158;6.614;2022-11-04T16:32:50;12.70;99.90
52615;DHT22;38508;53.158;6.614;2022-11-04T16:35:21;12.70;99.90
52615;DHT22;38508;53.158;6.614;2022-11-04T16:37:48;12.60;99.90
52615;DHT22;38508;53.158;6.614;2022-11-04T16:40:15;12.60;99.90
52615;DHT22;38508;53.158;6.614;2022-11-04T16:42:42;12.50;99.90
52615;DHT22;38508;53.158;6.614;2022-11-04T16:45:24;12.50;99.90
52615;DHT22;38508;53.158;6.614;2022-11-04T16:47:51;12.40;99.90
52615;DHT22;38508;53.158;6.614;2022-11-04T16:50:17;12.30;99.90
52615;DHT22;38508;53.158;6.614;2022-11-04T16:52:43;12.20;99.90
52615;DHT22;38508;53.158;6.614;2022-11-04T16:55:11;12.10;99.90
52615;DHT22;38508;53.158;6.614;2022-11-04T16:57:37;12.10;99.90
52615;DHT22;38508;53.158;6.614;2022-11-04T17:00:04;12.00;99.90
52615;DHT22;38508;53.158;6.614;2022-11-04T17:02:33;11.90;99.90
52615;DHT22;38508;53.158;6.614;2022-11-04T17:05:05;11.90;99.90
52615;DHT22;38508;53.158;6.614;2022-11-04T17:07:32;11.70;99.90
52615;DHT22;38508;53.158;6.614;2022-11-04T17:10:03;11.70;99.90
52615;DHT22;38508;53.158;6.614;2022-11-04T17:12:29;11.60;99.90
52615;DHT22;38508;53.158;6.614;2022-11-04T17:14:54;11.70;99.90
52615;DHT22;38508;53.158;6.614;2022-11-04T17:17:20;11.60;99.90
52615;DHT22;38508;53.158;6.614;2022-11-04T17:19:46;11.60;99.90
52615;DHT22;38508;53.158;6.614;2022-11-04T17:22:12;11.50;99.90
52615;DHT22;38508;53.158;6.614;2022-11-04T17:24:38;11.50;99.90
52615;DHT22;38508;53.158;6.614;2022-11-04T17:27:03;11.50;99.90
52615;DHT22;38508;53.158;6.614;2022-11-04T17:29:29;11.40;99.90
52615;DHT22;38508;53.158;6.614;2022-11-04T17:31:56;11.30;99.90
52615;DHT22;38508;53.158;6.614;2022-11-04T17:34:21;11.40;99.90
52615;DHT22;38508;53.158;6.614;2022-11-04T17:36:51;11.40;99.90
52615;DHT22;38508;53.158;6.614;2022-11-04T17:39:17;11.40;99.90
52615;DHT22;38508;53.158;6.614;2022-11-04T17:41:43;11.30;99.90
52615;DHT22;38508;53.158;6.614;2022-11-04T17:44:27;11.30;99.90
52615;DHT22;38508;53.158;6.614;2022-11-04T17:46:53;11.30;99.90
52615;DHT22;38508;53.158;6.614;2022-11-04T17:49:22;11.30;99.90
52615;DHT22;38508;53.158;6.614;2022-11-04T17:51:53;11.20;99.90
52615;DHT22;38508;53.158;6.614;2022-11-04T17:54:21;11.20;99.90
52615;DHT22;38508;53.158;6.614;2022-11-04T17:56:48;11.20;99.90
52615;DHT22;38508;53.158;6.614;2022-11-04T17:59:14;11.20;99.90
52615;DHT22;38508;53.158;6.614;2022-11-04T18:01:41;11.20;99.90
52615;DHT22;38508;53.158;6.614;2022-11-04T18:04:15;11.20;99.90
52615;DHT22;38508;53.158;6.614;2022-11-04T18:06:42;11.10;99.90
52615;DHT22;38508;53.158;6.614;2022-11-04T18:09:09;11.10;99.90
52615;DHT22;38508;53.158;6.614;2022-11-04T18:11:40;11.10;99.90
52615;DHT22;38508;53.158;6.614;2022-11-04T18:14:25;11.10;99.90
52615;DHT22;38508;53.158;6.614;2022-11-04T18:16:51;11.10;99.90
52615;DHT22;38508;53.158;6.614;2022-11-04T18:19:18;11.00;99.90
52615;DHT22;38508;53.158;6.614;2022-11-04T18:21:45;11.00;99.90
52615;DHT22;38508;53.158;6.614;2022-11-04T18:24:12;11.00;99.90
52615;DHT22;38508;53.158;6.614;2022-11-04T18:26:38;10.90;99.90
52615;DHT22;38508;53.158;6.614;2022-11-04T18:29:04;10.80;99.90
52615;DHT22;38508;53.158;6.614;2022-11-04T18:31:35;10.90;99.90
52615;DHT22;38508;53.158;6.614;2022-11-04T18:34:04;10.90;99.90
52615;DHT22;38508;53.158;6.614;2022-11-04T18:36:32;10.90;99.90
52615;DHT22;38508;53.158;6.614;2022-11-04T18:38:59;10.80;99.90
52615;DHT22;38508;53.158;6.614;2022-11-04T18:41:25;10.80;99.90
52615;DHT22;38508;53.158;6.614;2022-11-04T18:43:51;10.80;99.90
52615;DHT22;38508;53.158;6.614;2022-11-04T18:46:17;10.80;99.90
52615;DHT22;38508;53.158;6.614;2022-11-04T18:48:47;10.80;99.90
52615;DHT22;38508;53.158;6.614;2022-11-04T18:51:16;10.70;99.90
52615;DHT22;38508;53.158;6.614;2022-11-04T18:53:44;10.60;99.90